Owens X Rds, Alabama
Current Conditions -  °F | °C
As of 9:58 AM on Sunday 23 Nov 2014 (Local Time) from KHUA Reporting Station
Light Rain Light Rain  
Wind Chill: 55°   Ceiling: 1000
Heat Index: 55°   Visibility: 9mi
Dew Point: 52°   Wind: 20mph
Humidity: 92%   Direction: 120°ESE
Pressure: 29.81"   Gusts: 30mph
Location:  34.611°N, 86.4644°W
Report Text: KHUA 231558Z AUTO 12017G26KT 9SM -RA OVC010 13/11 A2981 RMK AO2 PK WND 12026/53 RAB1551 SLP094 P0000 T01260113
Loading
Personal Weather Stations






























Interactive Weather Map New forecast layout! Learn more

10-Day Weather Forecast

Advertisements
Track Severe Weather on mobile